Franconia, New Hampshire
Current Conditions -  °F | °C
As of 4:52 PM on Wednesday 17 Dec 2014 (Local Time) from KHIE Reporting Station
Light Rain Light Rain  
Wind Chill: 35°   Ceiling: 1100
Heat Index: 35°   Visibility: 5mi
Dew Point: 34°   Wind: 0mph
Humidity: 96%   Direction: NA
Pressure: 29.72"   Gusts: NA
Location:  44.23°N, 71.75°W
Report Text: KHIE 172152Z AUTO 00000KT 5SM -RA BR OVC011 02/01 A2972 RMK AO2 SLP076 P0004 T00170011
Loading
Personal Weather Stations






























Interactive Weather Map New forecast layout! Learn more

10-Day Weather Forecast

Advertisements
Track Severe Weather on mobile